createdAt,value
2019-01-27T00:03:05.745Z,13.63
2019-01-27T00:13:10.137Z,12.50
2019-01-27T00:23:14.875Z,10.27
2019-01-27T00:33:19.220Z,11.63
2019-01-27T00:43:23.643Z,10.73
2019-01-27T00:53:28.143Z,8.63
2019-01-27T01:03:32.756Z,9.23
2019-01-27T01:13:37.229Z,9.47
2019-01-27T01:23:41.763Z,9.10
2019-01-27T01:33:46.113Z,6.40
2019-01-27T01:43:50.894Z,7.67
2019-01-27T01:53:55.270Z,8.33
2019-01-27T02:04:00.040Z,7.37
2019-01-27T02:14:04.982Z,7.33
2019-01-27T02:24:09.386Z,7.10
2019-01-27T02:34:13.724Z,6.77
2019-01-27T02:44:18.418Z,8.07
2019-01-27T02:54:24.019Z,5.47
2019-01-27T03:04:28.412Z,5.87
2019-01-27T03:14:32.867Z,5.30
2019-01-27T03:24:37.639Z,5.97
2019-01-27T03:34:42.018Z,6.17
2019-01-27T03:44:46.493Z,5.57
2019-01-27T03:54:50.875Z,5.53
2019-01-27T04:04:55.398Z,3.73
2019-01-27T04:14:59.881Z,3.73
2019-01-27T04:25:04.998Z,4.10
2019-01-27T04:35:11.103Z,4.20
2019-01-27T04:45:17.920Z,3.53
2019-01-27T04:55:22.363Z,4.23
2019-01-27T05:05:27.332Z,3.70
2019-01-27T05:15:33.059Z,2.93
2019-01-27T05:25:37.497Z,2.87
2019-01-27T05:35:42.124Z,3.60
2019-01-27T05:45:46.648Z,2.63
2019-01-27T05:55:51.013Z,2.80
2019-01-27T06:05:55.394Z,2.90
2019-01-27T06:15:59.963Z,2.67
2019-01-27T06:26:04.709Z,3.07
2019-01-27T06:36:09.085Z,3.30
2019-01-27T06:46:13.745Z,3.07
2019-01-27T06:56:18.306Z,2.57
2019-01-27T07:06:27.110Z,5.23
2019-01-27T07:16:35.857Z,5.47
2019-01-27T07:27:09.798Z,4.30
2019-01-27T07:37:33.738Z,4.37
2019-01-27T07:47:42.842Z,4.40
2019-01-27T07:57:55.144Z,4.07
2019-01-27T08:08:01.023Z,4.53
2019-01-27T08:18:07.021Z,3.80
2019-01-27T08:28:13.249Z,6.23
2019-01-27T08:38:28.392Z,4.63
2019-01-27T08:48:32.741Z,5.17
2019-01-27T08:58:38.360Z,7.03
2019-01-27T09:09:02.991Z,7.37
2019-01-27T09:19:10.639Z,8.33
2019-01-27T09:29:16.852Z,6.20
2019-01-27T09:39:38.120Z,7.07
2019-01-27T09:49:56.854Z,4.97
2019-01-27T10:00:06.020Z,16.27
2019-01-27T10:10:12.672Z,10.57
2019-01-27T10:20:18.820Z,5.83
2019-01-27T10:30:26.023Z,13.10
2019-01-27T10:40:39.811Z,12.13
2019-01-27T10:50:55.795Z,17.77
2019-01-27T11:01:01.921Z,15.23
2019-01-27T11:11:07.940Z,40.37
2019-01-27T11:21:32.821Z,23.90
2019-01-27T11:31:40.011Z,19.43
2019-01-27T11:41:46.061Z,24.87
2019-01-27T11:51:50.747Z,25.17
2019-01-27T12:01:55.429Z,20.73
2019-01-27T12:11:59.792Z,21.60
2019-01-27T12:22:04.095Z,17.67
2019-01-27T12:32:08.827Z,19.97
2019-01-27T12:42:14.423Z,12.53
2019-01-27T12:52:18.855Z,10.90
2019-01-27T13:02:23.153Z,11.30
2019-01-27T13:12:27.607Z,15.20
2019-01-27T13:22:32.085Z,10.57
2019-01-27T13:32:36.799Z,18.07
2019-01-27T13:42:41.739Z,14.27
2019-01-27T13:52:46.130Z,13.07
2019-01-27T14:02:50.482Z,13.10
2019-01-27T14:12:55.142Z,12.30
2019-01-27T14:22:59.723Z,17.57
2019-01-27T14:33:04.284Z,15.87
2019-01-27T14:43:09.845Z,13.20
2019-01-27T14:53:14.316Z,16.83
2019-01-27T15:03:18.746Z,19.93
2019-01-27T15:13:23.283Z,10.80
2019-01-27T15:23:27.957Z,14.93
2019-01-27T15:33:32.633Z,18.13
2019-01-27T15:43:37.098Z,18.73
2019-01-27T15:53:42.571Z,22.03
2019-01-27T16:03:46.998Z,16.33
2019-01-27T16:13:51.536Z,13.43
2019-01-27T16:23:56.394Z,15.13
2019-01-27T16:34:02.491Z,14.50
2019-01-27T16:44:06.958Z,15.03
2019-01-27T16:54:11.196Z,14.20
2019-01-27T17:04:15.622Z,16.30
2019-01-27T17:14:20.288Z,17.03
2019-01-27T17:24:24.565Z,18.03
2019-01-27T17:35:55.695Z,14.33
2019-01-27T17:46:00.245Z,13.63
2019-01-27T17:56:04.817Z,16.93
2019-01-27T18:06:16.831Z,14.30
2019-01-27T18:16:21.521Z,15.87
2019-01-27T18:26:25.826Z,11.97
2019-01-27T18:36:30.440Z,13.97
2019-01-27T19:01:26.667Z,11.00
2019-01-27T19:11:41.642Z,11.20
2019-01-27T19:22:10.712Z,11.57
2019-01-27T19:32:16.914Z,13.63
2019-01-27T19:42:25.937Z,12.47
2019-01-27T19:52:34.537Z,12.53
2019-01-27T20:02:40.622Z,15.33
2019-01-27T20:13:08.551Z,14.97
2019-01-27T20:30:21.510Z,19.60
2019-01-27T20:40:27.569Z,24.43
2019-01-27T20:50:36.975Z,35.17
2019-01-27T21:00:51.858Z,33.27
2019-01-27T21:11:03.871Z,27.47
2019-01-27T21:21:08.150Z,28.23
2019-01-27T21:31:12.500Z,23.33
2019-01-27T21:41:16.904Z,28.10
2019-01-27T21:51:21.509Z,24.43
2019-01-27T22:01:26.044Z,25.20
2019-01-27T22:11:30.448Z,24.97
2019-01-27T22:21:34.785Z,25.60
2019-01-27T22:31:39.326Z,24.77
2019-01-27T22:41:43.641Z,23.53
2019-01-27T22:51:48.680Z,22.70
2019-01-27T23:01:53.596Z,20.47
2019-01-27T23:11:58.236Z,22.50
2019-01-27T23:22:02.744Z,22.10
2019-01-27T23:32:07.520Z,22.10
2019-01-27T23:42:11.846Z,23.20
2019-01-27T23:52:16.111Z,21.83
